createdAt,value
2019-04-14T00:01:34.790Z,10.50
2019-04-14T00:04:44.324Z,10.08
2019-04-14T00:07:47.799Z,9.43
2019-04-14T00:10:52.852Z,9.43
2019-04-14T00:13:56.719Z,9.90
2019-04-14T00:17:02.195Z,10.18
2019-04-14T00:20:05.447Z,10.57
2019-04-14T00:23:08.844Z,9.80
2019-04-14T00:26:29.460Z,9.40
2019-04-14T00:29:32.837Z,10.60
2019-04-14T00:32:44.372Z,10.87
2019-04-14T00:36:19.762Z,11.53
2019-04-14T00:39:27.876Z,11.33
2019-04-14T00:42:36.467Z,11.22
2019-04-14T00:46:02.997Z,11.00
2019-04-14T00:49:07.328Z,11.07
2019-04-14T00:52:10.421Z,11.97
2019-04-14T00:55:13.992Z,11.70
2019-04-14T00:58:17.139Z,11.97
2019-04-14T01:01:21.868Z,11.70
2019-04-14T01:04:25.157Z,12.28
2019-04-14T01:07:28.540Z,12.70
2019-04-14T01:10:32.181Z,12.07
2019-04-14T01:13:35.456Z,12.37
2019-04-14T01:16:38.724Z,13.27
2019-04-14T01:19:41.953Z,12.37
2019-04-14T01:22:45.245Z,12.90
2019-04-14T01:25:49.867Z,13.73
2019-04-14T01:28:53.272Z,12.90
2019-04-14T01:31:56.337Z,13.47
2019-04-14T01:34:59.458Z,13.63
2019-04-14T01:38:03.679Z,13.57
2019-04-14T01:41:06.943Z,14.15
2019-04-14T01:44:11.977Z,13.87
2019-04-14T01:47:15.884Z,13.70
2019-04-14T01:50:21.510Z,13.63
2019-04-14T01:53:53.214Z,14.10
2019-04-14T01:57:15.376Z,15.57
2019-04-14T02:00:38.223Z,16.50
2019-04-14T02:03:41.431Z,18.30
2019-04-14T02:06:44.695Z,18.40
2019-04-14T02:09:48.989Z,18.83
2019-04-14T02:12:52.320Z,20.17
2019-04-14T02:15:55.726Z,17.27
2019-04-14T02:19:00.218Z,19.37
2019-04-14T02:22:03.452Z,17.93
2019-04-14T02:25:07.672Z,20.63
2019-04-14T02:28:11.237Z,19.97
2019-04-14T02:31:29.673Z,18.77
2019-04-14T02:34:47.935Z,19.50
2019-04-14T02:37:58.503Z,20.03
2019-04-14T02:44:04.630Z,20.30
2019-04-14T02:47:27.761Z,22.00
2019-04-14T02:53:18.393Z,21.53
2019-04-14T02:56:25.178Z,20.33
2019-04-14T02:59:28.931Z,19.83
2019-04-14T03:05:35.871Z,22.03
2019-04-14T03:08:45.150Z,20.87
2019-04-14T03:11:47.557Z,21.27
2019-04-14T03:14:53.762Z,22.60
2019-04-14T03:22:08.590Z,22.03
2019-04-14T03:25:08.073Z,21.27
2019-04-14T03:28:32.991Z,21.93
2019-04-14T03:38:08.059Z,22.40
2019-04-14T03:40:54.784Z,22.03
2019-04-14T03:43:46.410Z,21.50
2019-04-14T03:56:27.036Z,22.07
2019-04-14T03:59:30.348Z,21.33
2019-04-14T04:02:33.707Z,22.33
2019-04-14T04:05:37.631Z,22.63
2019-04-14T04:08:41.976Z,20.83
2019-04-14T04:11:45.548Z,22.90
2019-04-14T04:14:48.856Z,22.63
2019-04-14T04:18:00.976Z,23.63
2019-04-14T04:21:24.818Z,21.90
2019-04-14T04:24:35.208Z,22.53
2019-04-14T04:27:50.472Z,22.67
2019-04-14T04:31:28.580Z,22.63
2019-04-14T04:34:42.948Z,22.47
2019-04-14T04:37:56.349Z,20.53
2019-04-14T04:40:59.768Z,20.97
2019-04-14T04:44:02.973Z,22.80
2019-04-14T04:47:06.159Z,21.83
2019-04-14T04:50:10.684Z,21.43
2019-04-14T04:53:13.956Z,19.47
2019-04-14T04:56:17.175Z,22.07
2019-04-14T04:59:21.273Z,22.23
2019-04-14T05:02:24.594Z,19.20
2019-04-14T05:06:07.182Z,19.63
2019-04-14T05:09:17.433Z,19.23
2019-04-14T05:12:44.095Z,19.37
2019-04-14T05:15:53.258Z,19.23
2019-04-14T05:19:10.578Z,19.10
2019-04-14T05:22:03.309Z,18.57
2019-04-14T05:25:07.833Z,19.60
2019-04-14T05:28:11.328Z,20.50
2019-04-14T05:31:14.511Z,19.33
2019-04-14T05:34:17.643Z,19.27
2019-04-14T05:37:20.710Z,20.93
2019-04-14T05:40:23.896Z,20.17
2019-04-14T05:43:36.777Z,20.13
2019-04-14T05:46:31.928Z,20.20
2019-04-14T05:49:44.217Z,20.87
2019-04-14T05:52:42.366Z,20.80
2019-04-14T05:55:46.025Z,19.13
2019-04-14T05:58:49.343Z,21.13
2019-04-14T06:01:52.541Z,21.83
2019-04-14T06:04:55.608Z,20.47
2019-04-14T06:07:58.695Z,21.30
2019-04-14T06:11:01.895Z,22.13
2019-04-14T06:14:05.117Z,22.47
2019-04-14T06:17:08.285Z,21.87
2019-04-14T06:20:11.478Z,22.80
2019-04-14T06:23:14.574Z,22.13
2019-04-14T06:26:17.913Z,22.50
2019-04-14T06:29:21.100Z,23.20
2019-04-14T06:32:30.075Z,23.33
2019-04-14T06:35:43.331Z,23.83
2019-04-14T06:38:48.605Z,22.43
2019-04-14T06:41:51.751Z,21.87
2019-04-14T06:44:54.955Z,22.87
2019-04-14T06:48:09.782Z,22.73
2019-04-14T06:51:13.028Z,22.63
2019-04-14T06:54:16.360Z,23.87
2019-04-14T06:57:19.411Z,23.43
2019-04-14T07:00:22.613Z,23.15
2019-04-14T07:03:25.704Z,24.97
2019-04-14T07:06:28.916Z,22.20
2019-04-14T07:09:32.095Z,22.90
2019-04-14T07:12:35.291Z,25.25
2019-04-14T07:15:38.487Z,22.95
2019-04-14T07:18:41.567Z,23.50
2019-04-14T07:21:44.803Z,24.37
2019-04-14T07:24:47.999Z,24.57
2019-04-14T07:27:51.160Z,25.13
2019-04-14T07:31:25.591Z,24.77
2019-04-14T07:34:46.911Z,23.87
2019-04-14T07:38:15.407Z,25.10
2019-04-14T07:41:46.878Z,23.65
2019-04-14T07:45:08.046Z,24.90
2019-04-14T07:48:17.361Z,25.12
2019-04-14T07:51:24.683Z,25.97
2019-04-14T07:54:39.877Z,26.00
2019-04-14T07:58:01.245Z,24.37
2019-04-14T08:01:15.756Z,24.95
2019-04-14T08:04:38.400Z,24.05
2019-04-14T08:07:42.319Z,23.02
2019-04-14T08:10:45.424Z,24.80
2019-04-14T08:13:48.599Z,23.43
2019-04-14T08:16:51.804Z,24.60
2019-04-14T08:19:54.992Z,24.95
2019-04-14T08:22:58.127Z,22.20
2019-04-14T08:26:01.420Z,24.65
2019-04-14T08:29:04.907Z,24.77
2019-04-14T08:32:08.119Z,23.57
2019-04-14T08:35:11.175Z,21.68
2019-04-14T08:38:15.430Z,23.00
2019-04-14T08:41:18.740Z,22.03
2019-04-14T08:44:29.548Z,23.40
2019-04-14T08:47:50.004Z,23.38
2019-04-14T08:51:09.886Z,21.48
2019-04-14T08:54:22.880Z,20.72
2019-04-14T08:57:51.329Z,22.22
2019-04-14T09:01:19.180Z,18.82
2019-04-14T09:04:36.984Z,19.90
2019-04-14T09:07:45.428Z,20.52
2019-04-14T09:10:51.668Z,20.37
2019-04-14T09:13:54.859Z,20.70
2019-04-14T09:16:58.192Z,19.85
2019-04-14T09:20:01.255Z,22.10
2019-04-14T09:23:05.820Z,20.87
2019-04-14T09:26:08.869Z,23.18
2019-04-14T09:29:11.970Z,18.70
2019-04-14T09:32:15.310Z,18.40
2019-04-14T09:35:18.360Z,18.63
2019-04-14T09:38:21.687Z,17.35
2019-04-14T09:41:25.597Z,17.55
2019-04-14T09:44:28.768Z,16.75
2019-04-14T09:47:31.983Z,17.10
2019-04-14T09:50:35.154Z,18.10
2019-04-14T09:53:38.471Z,16.55
2019-04-14T09:56:41.539Z,15.70
2019-04-14T09:59:44.731Z,14.90
2019-04-14T10:02:47.968Z,15.63
2019-04-14T10:05:51.119Z,15.80
2019-04-14T10:08:54.532Z,16.17
2019-04-14T10:11:57.724Z,15.75
2019-04-14T10:15:00.917Z,16.12
2019-04-14T10:18:04.044Z,15.53
2019-04-14T10:21:16.682Z,15.38
2019-04-14T10:24:12.387Z,15.72
2019-04-14T10:27:15.842Z,15.60
2019-04-14T10:30:18.943Z,14.33
2019-04-14T10:33:22.367Z,13.70
2019-04-14T10:36:25.530Z,13.40
2019-04-14T10:39:28.932Z,11.93
2019-04-14T10:42:32.288Z,12.43
2019-04-14T10:45:35.649Z,12.73
2019-04-14T10:48:38.759Z,12.07
2019-04-14T10:51:41.846Z,10.82
2019-04-14T10:54:44.913Z,10.90
2019-04-14T10:57:48.199Z,11.25
2019-04-14T11:00:51.700Z,11.60
2019-04-14T11:03:55.003Z,10.23
2019-04-14T11:07:02.423Z,9.43
2019-04-14T11:10:06.415Z,10.32
2019-04-14T11:13:09.706Z,9.73
2019-04-14T11:16:13.745Z,10.15
2019-04-14T11:19:17.060Z,9.65
2019-04-14T11:22:21.887Z,9.70
2019-04-14T11:25:24.952Z,9.63
2019-04-14T11:28:28.144Z,8.83
2019-04-14T11:31:49.540Z,9.40
2019-04-14T11:35:09.377Z,10.70
2019-04-14T11:38:15.826Z,9.68
2019-04-14T11:41:21.399Z,10.05
2019-04-14T11:44:24.591Z,10.15
2019-04-14T11:47:27.799Z,9.90
2019-04-14T11:50:30.896Z,9.48
2019-04-14T11:53:34.146Z,9.83
2019-04-14T11:56:37.383Z,9.93
2019-04-14T11:59:47.151Z,9.88
2019-04-14T12:03:18.692Z,9.80
2019-04-14T12:06:50.508Z,10.10
2019-04-14T12:10:06.047Z,9.28
2019-04-14T12:13:09.411Z,10.08
2019-04-14T12:16:12.643Z,10.55
2019-04-14T12:19:15.898Z,9.53
2019-04-14T12:22:19.031Z,10.55
2019-04-14T12:25:22.093Z,9.18
2019-04-14T12:28:26.264Z,9.15
2019-04-14T12:31:30.878Z,9.73
2019-04-14T12:34:34.675Z,9.70
2019-04-14T12:38:10.691Z,9.83
2019-04-14T12:41:19.727Z,9.35
2019-04-14T12:44:48.205Z,9.33
2019-04-14T12:48:05.680Z,9.48
2019-04-14T12:51:13.407Z,9.45
2019-04-14T12:54:16.688Z,10.48
2019-04-14T12:57:32.895Z,9.53
2019-04-14T13:00:40.033Z,8.53
2019-04-14T13:03:44.602Z,8.93
2019-04-14T13:06:47.656Z,8.48
2019-04-14T13:09:50.883Z,8.73
2019-04-14T13:12:54.056Z,8.28
2019-04-14T13:15:57.339Z,8.28
2019-04-14T13:19:00.639Z,8.55
2019-04-14T13:22:04.053Z,8.65
2019-04-14T13:25:07.488Z,8.48
2019-04-14T13:28:10.631Z,8.55
2019-04-14T13:31:13.836Z,8.68
2019-04-14T13:34:17.169Z,8.28
2019-04-14T13:37:20.335Z,8.18
2019-04-14T13:40:23.736Z,7.62
2019-04-14T13:43:27.068Z,7.33
2019-04-14T13:46:30.319Z,7.80
2019-04-14T13:49:33.548Z,7.92
2019-04-14T13:52:46.583Z,8.13
2019-04-14T13:55:42.372Z,8.43
2019-04-14T13:58:45.460Z,9.00
2019-04-14T14:01:48.663Z,8.53
2019-04-14T14:04:51.892Z,8.78
2019-04-14T14:07:55.098Z,7.83
2019-04-14T14:11:07.423Z,8.50
2019-04-14T14:14:24.383Z,8.63
2019-04-14T14:17:47.028Z,8.20
2019-04-14T14:21:24.761Z,8.50
2019-04-14T14:24:46.167Z,7.15
2019-04-14T14:27:50.467Z,8.15
2019-04-14T14:30:53.704Z,7.87
2019-04-14T14:33:56.765Z,7.97
2019-04-14T14:37:00.064Z,7.25
2019-04-14T14:40:03.983Z,7.33
2019-04-14T14:43:07.159Z,7.10
2019-04-14T14:46:32.863Z,6.55
2019-04-14T14:49:58.276Z,7.25
2019-04-14T14:53:11.514Z,7.83
2019-04-14T14:56:06.576Z,7.17
2019-04-14T14:59:09.871Z,7.30
2019-04-14T15:02:13.335Z,6.75
2019-04-14T15:05:18.180Z,6.78
2019-04-14T15:08:21.264Z,7.45
2019-04-14T15:11:24.459Z,7.03
2019-04-14T15:14:27.765Z,7.20
2019-04-14T15:17:30.967Z,6.97
2019-04-14T15:20:34.179Z,7.12
2019-04-14T15:23:37.349Z,6.95
2019-04-14T15:26:40.649Z,6.85
2019-04-14T15:29:43.741Z,7.33
2019-04-14T15:32:46.956Z,7.72
2019-04-14T15:35:50.060Z,7.20
2019-04-14T15:38:53.232Z,7.22
2019-04-14T15:41:56.468Z,7.80
2019-04-14T15:44:59.628Z,7.35
2019-04-14T15:48:02.902Z,7.28
2019-04-14T15:51:06.103Z,7.78
2019-04-14T15:54:09.406Z,7.40
2019-04-14T15:57:35.619Z,8.40
2019-04-14T16:00:56.683Z,8.60
2019-04-14T16:04:15.643Z,8.23
2019-04-14T16:07:36.972Z,7.62
2019-04-14T16:10:52.641Z,7.28
2019-04-14T16:14:14.051Z,7.60
2019-04-14T16:17:35.476Z,8.05
2019-04-14T16:20:40.818Z,8.50
2019-04-14T16:23:50.439Z,8.58
2019-04-14T16:26:53.675Z,7.15
2019-04-14T16:30:05.653Z,7.30
2019-04-14T16:33:12.368Z,7.17
2019-04-14T16:36:15.519Z,9.13
2019-04-14T16:39:18.973Z,7.37
2019-04-14T16:42:22.128Z,6.80
2019-04-14T16:45:25.341Z,6.97
2019-04-14T16:48:28.604Z,6.37
2019-04-14T16:51:36.872Z,6.97
2019-04-14T16:54:51.732Z,6.42
2019-04-14T16:58:26.659Z,6.00
2019-04-14T17:01:35.516Z,4.65
2019-04-14T17:04:38.860Z,5.47
2019-04-14T17:07:42.136Z,5.35
2019-04-14T17:10:45.308Z,8.08
2019-04-14T17:14:07.988Z,5.12
2019-04-14T17:17:38.265Z,5.65
2019-04-14T17:20:59.398Z,5.80
2019-04-14T17:24:16.853Z,5.53
2019-04-14T17:27:23.108Z,4.97
2019-04-14T17:30:45.736Z,4.72
2019-04-14T17:34:02.256Z,4.20
2019-04-14T17:37:18.176Z,4.28
2019-04-14T17:40:39.536Z,4.28
2019-04-14T17:43:47.787Z,4.25
2019-04-14T17:47:06.544Z,4.65
2019-04-14T17:50:40.150Z,4.40
2019-04-14T17:53:47.596Z,4.35
2019-04-14T17:57:27.605Z,4.40
2019-04-14T18:00:54.257Z,4.33
2019-04-14T18:04:06.467Z,4.42
2019-04-14T18:07:15.088Z,4.65
2019-04-14T18:10:43.419Z,3.80
2019-04-14T18:14:04.670Z,3.42
2019-04-14T18:17:27.217Z,3.05
2019-04-14T18:20:36.637Z,3.80
2019-04-14T18:23:39.905Z,3.98
2019-04-14T18:26:43.208Z,3.62
2019-04-14T18:30:11.822Z,3.58
2019-04-14T18:33:37.372Z,3.77
2019-04-14T18:36:56.443Z,3.83
2019-04-14T18:40:19.107Z,3.67
2019-04-14T18:43:40.535Z,3.90
2019-04-14T18:46:49.687Z,3.60
2019-04-14T18:50:14.905Z,3.52
2019-04-14T18:53:37.612Z,3.90
2019-04-14T18:57:00.192Z,3.77
2019-04-14T19:00:21.908Z,3.55
2019-04-14T19:03:25.313Z,3.30
2019-04-14T19:06:28.595Z,3.42
2019-04-14T19:09:31.997Z,3.12
2019-04-14T19:12:50.524Z,3.30
2019-04-14T19:16:06.575Z,3.65
2019-04-14T19:19:10.050Z,3.65
2019-04-14T19:22:13.370Z,3.58
2019-04-14T19:25:16.744Z,4.20
2019-04-14T19:28:20.079Z,2.90
2019-04-14T19:31:23.576Z,3.17
2019-04-14T19:34:27.189Z,3.17
2019-04-14T19:37:30.683Z,3.62
2019-04-14T19:40:35.657Z,3.75
2019-04-14T19:43:39.128Z,3.98
2019-04-14T19:46:42.500Z,3.35
2019-04-14T19:49:45.743Z,3.83
2019-04-14T19:52:49.080Z,3.20
2019-04-14T19:55:52.715Z,4.53
2019-04-14T19:58:56.025Z,3.58
2019-04-14T20:01:59.388Z,3.37
2019-04-14T20:05:03.323Z,4.05
2019-04-14T20:08:06.905Z,4.33
2019-04-14T20:11:11.360Z,3.70
2019-04-14T20:14:14.567Z,4.00
2019-04-14T20:17:49.143Z,4.10
2019-04-14T20:21:11.832Z,3.93
2019-04-14T20:24:19.656Z,3.65
2019-04-14T20:27:33.797Z,4.22
2019-04-14T20:30:44.975Z,4.70
2019-04-14T20:33:49.292Z,3.98
2019-04-14T20:36:53.198Z,4.65
2019-04-14T20:39:57.236Z,4.30
2019-04-14T20:43:01.226Z,4.28
2019-04-14T20:46:06.895Z,4.42
2019-04-14T20:49:11.417Z,4.03
2019-04-14T20:52:16.407Z,4.10
2019-04-14T20:55:20.658Z,3.85
2019-04-14T20:58:27.059Z,4.35
2019-04-14T21:01:33.025Z,4.62
2019-04-14T21:04:54.839Z,3.80
2019-04-14T21:08:37.347Z,4.20
2019-04-14T21:11:53.935Z,4.17
2019-04-14T21:15:19.791Z,4.60
2019-04-14T21:23:07.829Z,4.53
2019-04-14T21:26:33.007Z,4.20
2019-04-14T21:30:05.667Z,3.90
2019-04-14T21:33:30.892Z,4.22
2019-04-14T21:36:41.337Z,4.65
2019-04-14T21:39:51.968Z,4.95
2019-04-14T21:42:55.216Z,5.80
2019-04-14T21:45:58.469Z,4.87
2019-04-14T21:49:01.659Z,5.10
2019-04-14T21:52:25.998Z,4.70
2019-04-14T21:55:29.275Z,3.87
2019-04-14T21:58:54.891Z,4.10
2019-04-14T22:02:32.355Z,5.22
2019-04-14T22:05:47.323Z,4.83
2019-04-14T22:08:52.103Z,4.67
2019-04-14T22:11:56.572Z,4.80
2019-04-14T22:14:59.696Z,4.43
2019-04-14T22:18:02.923Z,4.33
2019-04-14T22:21:06.185Z,5.17
2019-04-14T22:24:09.195Z,4.83
2019-04-14T22:27:12.303Z,4.47
2019-04-14T22:30:15.976Z,4.97
2019-04-14T22:33:20.231Z,4.60
2019-04-14T22:36:23.288Z,5.10
2019-04-14T22:39:26.624Z,4.58
2019-04-14T22:42:29.778Z,4.90
2019-04-14T22:49:52.039Z,4.75
2019-04-14T22:52:55.340Z,5.87
2019-04-14T22:55:58.399Z,5.37
2019-04-14T22:59:01.639Z,5.45
2019-04-14T23:02:11.008Z,5.28
2019-04-14T23:05:32.515Z,5.17
2019-04-14T23:08:43.563Z,5.25
2019-04-14T23:12:06.186Z,5.58
2019-04-14T23:15:31.855Z,5.17
2019-04-14T23:19:00.076Z,5.85
2019-04-14T23:22:23.009Z,5.30
2019-04-14T23:25:26.284Z,5.37
2019-04-14T23:28:29.337Z,5.20
2019-04-14T23:31:32.528Z,5.47
2019-04-14T23:34:35.656Z,5.50
2019-04-14T23:37:38.720Z,5.17
2019-04-14T23:40:41.916Z,5.07
2019-04-14T23:43:45.097Z,4.87
2019-04-14T23:46:48.307Z,5.58
2019-04-14T23:49:51.524Z,4.90
2019-04-14T23:52:54.584Z,5.70
2019-04-14T23:55:57.789Z,4.78
2019-04-14T23:59:00.877Z,5.30
